sensor_id;sensor_type;location;lat;lon;timestamp;P1;durP1;ratioP1;P2;durP2;ratioP2
830;SDS011;397;50.564;7.272;2023-03-21T00:00:56;5.13;;;2.90;;
830;SDS011;397;50.564;7.272;2023-03-21T00:03:25;5.00;;;3.20;;
830;SDS011;397;50.564;7.272;2023-03-21T00:05:53;5.37;;;3.60;;
830;SDS011;397;50.564;7.272;2023-03-21T00:08:22;4.77;;;3.60;;
830;SDS011;397;50.564;7.272;2023-03-21T00:10:54;6.03;;;3.00;;
830;SDS011;397;50.564;7.272;2023-03-21T00:13:27;6.37;;;3.47;;
830;SDS011;397;50.564;7.272;2023-03-21T00:16:05;4.60;;;3.50;;
830;SDS011;397;50.564;7.272;2023-03-21T00:18:34;6.77;;;3.70;;
830;SDS011;397;50.564;7.272;2023-03-21T00:21:04;5.40;;;3.37;;
830;SDS011;397;50.564;7.272;2023-03-21T00:23:32;14.80;;;7.33;;
830;SDS011;397;50.564;7.272;2023-03-21T00:26:00;9.80;;;5.40;;
830;SDS011;397;50.564;7.272;2023-03-21T00:28:27;8.53;;;5.27;;
830;SDS011;397;50.564;7.272;2023-03-21T00:30:58;10.53;;;4.20;;
830;SDS011;397;50.564;7.272;2023-03-21T00:33:26;6.20;;;3.37;;
830;SDS011;397;50.564;7.272;2023-03-21T00:35:54;11.37;;;4.23;;
830;SDS011;397;50.564;7.272;2023-03-21T00:38:22;9.00;;;4.17;;
830;SDS011;397;50.564;7.272;2023-03-21T00:40:50;7.87;;;2.80;;
830;SDS011;397;50.564;7.272;2023-03-21T00:43:17;7.60;;;3.90;;
830;SDS011;397;50.564;7.272;2023-03-21T00:45:47;11.13;;;4.10;;
830;SDS011;397;50.564;7.272;2023-03-21T00:48:16;7.83;;;3.90;;
830;SDS011;397;50.564;7.272;2023-03-21T00:50:45;7.97;;;4.57;;
830;SDS011;397;50.564;7.272;2023-03-21T00:53:13;6.40;;;3.73;;
830;SDS011;397;50.564;7.272;2023-03-21T00:55:41;7.77;;;3.50;;
830;SDS011;397;50.564;7.272;2023-03-21T00:58:08;9.70;;;4.80;;
830;SDS011;397;50.564;7.272;2023-03-21T01:00:36;7.87;;;4.20;;
830;SDS011;397;50.564;7.272;2023-03-21T01:03:07;8.03;;;3.67;;
830;SDS011;397;50.564;7.272;2023-03-21T01:05:42;6.07;;;3.80;;
830;SDS011;397;50.564;7.272;2023-03-21T01:08:31;11.47;;;4.00;;
830;SDS011;397;50.564;7.272;2023-03-21T01:11:03;8.57;;;4.00;;
830;SDS011;397;50.564;7.272;2023-03-21T01:13:31;8.03;;;4.27;;
830;SDS011;397;50.564;7.272;2023-03-21T01:16:00;7.57;;;3.80;;
830;SDS011;397;50.564;7.272;2023-03-21T01:18:29;6.67;;;3.37;;
830;SDS011;397;50.564;7.272;2023-03-21T01:20:58;7.37;;;3.97;;
830;SDS011;397;50.564;7.272;2023-03-21T01:23:27;10.03;;;3.50;;
830;SDS011;397;50.564;7.272;2023-03-21T01:25:55;12.43;;;3.90;;
830;SDS011;397;50.564;7.272;2023-03-21T01:28:26;10.60;;;4.17;;
830;SDS011;397;50.564;7.272;2023-03-21T01:30:55;6.40;;;3.83;;
830;SDS011;397;50.564;7.272;2023-03-21T01:33:23;7.10;;;3.83;;
830;SDS011;397;50.564;7.272;2023-03-21T01:35:50;6.73;;;4.13;;
830;SDS011;397;50.564;7.272;2023-03-21T01:38:18;7.10;;;3.20;;
830;SDS011;397;50.564;7.272;2023-03-21T01:40:47;6.30;;;3.53;;
830;SDS011;397;50.564;7.272;2023-03-21T01:43:26;5.10;;;4.20;;
830;SDS011;397;50.564;7.272;2023-03-21T01:46:06;8.77;;;4.23;;
830;SDS011;397;50.564;7.272;2023-03-21T01:48:32;7.23;;;3.93;;
830;SDS011;397;50.564;7.272;2023-03-21T01:51:02;7.30;;;3.60;;
830;SDS011;397;50.564;7.272;2023-03-21T01:53:30;7.90;;;3.50;;
830;SDS011;397;50.564;7.272;2023-03-21T01:56:02;8.47;;;3.70;;
830;SDS011;397;50.564;7.272;2023-03-21T01:58:32;5.10;;;3.13;;
830;SDS011;397;50.564;7.272;2023-03-21T02:01:01;7.53;;;3.00;;
830;SDS011;397;50.564;7.272;2023-03-21T02:03:29;5.77;;;3.00;;
830;SDS011;397;50.564;7.272;2023-03-21T02:06:08;5.93;;;2.53;;
830;SDS011;397;50.564;7.272;2023-03-21T02:08:38;3.30;;;1.97;;
830;SDS011;397;50.564;7.272;2023-03-21T02:11:06;4.40;;;2.70;;
830;SDS011;397;50.564;7.272;2023-03-21T02:13:35;4.47;;;2.83;;
830;SDS011;397;50.564;7.272;2023-03-21T02:16:26;5.40;;;2.53;;
830;SDS011;397;50.564;7.272;2023-03-21T02:19:08;5.97;;;2.63;;
830;SDS011;397;50.564;7.272;2023-03-21T02:27:16;6.50;;;3.27;;
830;SDS011;397;50.564;7.272;2023-03-21T02:38:40;7.30;;;3.20;;
830;SDS011;397;50.564;7.272;2023-03-21T02:41:24;5.27;;;3.33;;
830;SDS011;397;50.564;7.272;2023-03-21T02:44:16;4.83;;;3.37;;
830;SDS011;397;50.564;7.272;2023-03-21T02:46:54;5.03;;;3.40;;
830;SDS011;397;50.564;7.272;2023-03-21T02:49:23;6.70;;;3.43;;
830;SDS011;397;50.564;7.272;2023-03-21T02:51:54;4.33;;;2.87;;
830;SDS011;397;50.564;7.272;2023-03-21T02:54:26;5.23;;;3.10;;
830;SDS011;397;50.564;7.272;2023-03-21T02:56:56;4.53;;;2.83;;
830;SDS011;397;50.564;7.272;2023-03-21T02:59:26;4.83;;;3.03;;
830;SDS011;397;50.564;7.272;2023-03-21T03:01:54;4.53;;;3.07;;
830;SDS011;397;50.564;7.272;2023-03-21T03:04:24;7.53;;;3.80;;
830;SDS011;397;50.564;7.272;2023-03-21T03:07:06;6.87;;;3.10;;
830;SDS011;397;50.564;7.272;2023-03-21T03:12:34;5.20;;;3.40;;
830;SDS011;397;50.564;7.272;2023-03-21T03:17:42;8.33;;;4.10;;
830;SDS011;397;50.564;7.272;2023-03-21T03:22:53;6.77;;;2.70;;
830;SDS011;397;50.564;7.272;2023-03-21T03:26:01;7.63;;;3.50;;
830;SDS011;397;50.564;7.272;2023-03-21T03:28:07;7.70;;;3.10;;
830;SDS011;397;50.564;7.272;2023-03-21T03:30:37;6.83;;;3.60;;
830;SDS011;397;50.564;7.272;2023-03-21T03:33:05;9.00;;;3.70;;
830;SDS011;397;50.564;7.272;2023-03-21T03:35:35;8.80;;;3.37;;
830;SDS011;397;50.564;7.272;2023-03-21T03:38:03;7.30;;;3.57;;
830;SDS011;397;50.564;7.272;2023-03-21T03:40:35;7.17;;;3.20;;
830;SDS011;397;50.564;7.272;2023-03-21T03:43:08;4.37;;;2.40;;
830;SDS011;397;50.564;7.272;2023-03-21T03:45:42;3.50;;;3.00;;
830;SDS011;397;50.564;7.272;2023-03-21T03:48:29;7.73;;;3.43;;
830;SDS011;397;50.564;7.272;2023-03-21T03:53:52;9.40;;;3.93;;
830;SDS011;397;50.564;7.272;2023-03-21T03:56:20;10.60;;;3.57;;
830;SDS011;397;50.564;7.272;2023-03-21T03:58:50;8.13;;;3.70;;
830;SDS011;397;50.564;7.272;2023-03-21T04:01:17;6.57;;;3.20;;
830;SDS011;397;50.564;7.272;2023-03-21T04:03:46;7.20;;;3.73;;
830;SDS011;397;50.564;7.272;2023-03-21T04:06:17;5.90;;;3.47;;
830;SDS011;397;50.564;7.272;2023-03-21T04:08:47;5.00;;;3.27;;
830;SDS011;397;50.564;7.272;2023-03-21T04:11:15;6.07;;;2.87;;
830;SDS011;397;50.564;7.272;2023-03-21T04:13:43;8.43;;;4.07;;
830;SDS011;397;50.564;7.272;2023-03-21T04:16:10;8.67;;;3.97;;
830;SDS011;397;50.564;7.272;2023-03-21T04:18:43;5.80;;;3.70;;
830;SDS011;397;50.564;7.272;2023-03-21T04:21:08;9.83;;;4.40;;
830;SDS011;397;50.564;7.272;2023-03-21T04:23:38;7.07;;;3.47;;
830;SDS011;397;50.564;7.272;2023-03-21T04:26:06;6.13;;;3.00;;
830;SDS011;397;50.564;7.272;2023-03-21T04:28:35;6.67;;;3.87;;
830;SDS011;397;50.564;7.272;2023-03-21T04:31:06;7.30;;;4.23;;
830;SDS011;397;50.564;7.272;2023-03-21T04:33:34;9.93;;;4.17;;
830;SDS011;397;50.564;7.272;2023-03-21T04:36:04;7.17;;;4.00;;
830;SDS011;397;50.564;7.272;2023-03-21T04:38:34;12.03;;;4.00;;
830;SDS011;397;50.564;7.272;2023-03-21T04:41:02;6.67;;;4.30;;
830;SDS011;397;50.564;7.272;2023-03-21T04:43:30;5.67;;;3.87;;
830;SDS011;397;50.564;7.272;2023-03-21T04:45:57;8.97;;;4.30;;
830;SDS011;397;50.564;7.272;2023-03-21T04:48:25;9.20;;;4.00;;
830;SDS011;397;50.564;7.272;2023-03-21T04:50:52;8.47;;;4.30;;
830;SDS011;397;50.564;7.272;2023-03-21T04:53:20;5.90;;;4.20;;
830;SDS011;397;50.564;7.272;2023-03-21T04:55:47;8.97;;;4.80;;
830;SDS011;397;50.564;7.272;2023-03-21T04:58:16;9.00;;;4.60;;
830;SDS011;397;50.564;7.272;2023-03-21T05:00:45;7.03;;;4.93;;
830;SDS011;397;50.564;7.272;2023-03-21T05:03:12;8.80;;;4.17;;
830;SDS011;397;50.564;7.272;2023-03-21T05:05:42;8.70;;;4.57;;
830;SDS011;397;50.564;7.272;2023-03-21T05:08:09;9.80;;;4.13;;
830;SDS011;397;50.564;7.272;2023-03-21T05:10:38;10.43;;;4.77;;
830;SDS011;397;50.564;7.272;2023-03-21T05:13:05;6.80;;;4.63;;
830;SDS011;397;50.564;7.272;2023-03-21T05:15:33;7.23;;;4.17;;
830;SDS011;397;50.564;7.272;2023-03-21T05:18:01;12.07;;;4.50;;
830;SDS011;397;50.564;7.272;2023-03-21T05:20:30;10.13;;;4.33;;
830;SDS011;397;50.564;7.272;2023-03-21T05:22:57;13.23;;;7.40;;
830;SDS011;397;50.564;7.272;2023-03-21T05:25:25;10.87;;;5.33;;
830;SDS011;397;50.564;7.272;2023-03-21T05:27:54;8.40;;;4.83;;
830;SDS011;397;50.564;7.272;2023-03-21T05:30:21;6.27;;;4.90;;
830;SDS011;397;50.564;7.272;2023-03-21T05:32:49;8.97;;;4.80;;
830;SDS011;397;50.564;7.272;2023-03-21T05:35:16;6.60;;;4.77;;
830;SDS011;397;50.564;7.272;2023-03-21T05:37:44;8.77;;;4.67;;
830;SDS011;397;50.564;7.272;2023-03-21T05:40:11;11.77;;;5.23;;
830;SDS011;397;50.564;7.272;2023-03-21T05:42:39;9.57;;;6.10;;
830;SDS011;397;50.564;7.272;2023-03-21T05:45:07;10.33;;;5.30;;
830;SDS011;397;50.564;7.272;2023-03-21T05:47:34;10.23;;;5.70;;
830;SDS011;397;50.564;7.272;2023-03-21T05:50:02;9.20;;;5.20;;
830;SDS011;397;50.564;7.272;2023-03-21T05:52:31;9.40;;;5.07;;
830;SDS011;397;50.564;7.272;2023-03-21T05:54:59;11.40;;;5.70;;
830;SDS011;397;50.564;7.272;2023-03-21T05:57:26;8.77;;;5.20;;
830;SDS011;397;50.564;7.272;2023-03-21T05:59:54;10.20;;;6.63;;
830;SDS011;397;50.564;7.272;2023-03-21T06:02:21;9.07;;;4.83;;
830;SDS011;397;50.564;7.272;2023-03-21T06:04:49;6.93;;;5.30;;
830;SDS011;397;50.564;7.272;2023-03-21T06:07:16;9.20;;;4.80;;
830;SDS011;397;50.564;7.272;2023-03-21T06:09:44;6.60;;;4.90;;
830;SDS011;397;50.564;7.272;2023-03-21T06:12:11;11.67;;;5.30;;
830;SDS011;397;50.564;7.272;2023-03-21T06:14:40;8.53;;;5.27;;
830;SDS011;397;50.564;7.272;2023-03-21T06:17:08;11.67;;;5.17;;
830;SDS011;397;50.564;7.272;2023-03-21T06:19:35;10.07;;;4.87;;
830;SDS011;397;50.564;7.272;2023-03-21T06:22:03;10.30;;;6.40;;
830;SDS011;397;50.564;7.272;2023-03-21T06:24:30;11.60;;;6.40;;
830;SDS011;397;50.564;7.272;2023-03-21T06:26:58;11.67;;;7.00;;
830;SDS011;397;50.564;7.272;2023-03-21T06:29:25;14.57;;;5.97;;
830;SDS011;397;50.564;7.272;2023-03-21T06:31:53;11.63;;;6.20;;
830;SDS011;397;50.564;7.272;2023-03-21T06:34:20;13.70;;;7.50;;
830;SDS011;397;50.564;7.272;2023-03-21T06:36:48;10.83;;;7.53;;
830;SDS011;397;50.564;7.272;2023-03-21T06:39:16;12.73;;;8.20;;
830;SDS011;397;50.564;7.272;2023-03-21T06:41:44;13.10;;;8.20;;
830;SDS011;397;50.564;7.272;2023-03-21T06:44:11;9.20;;;6.87;;
830;SDS011;397;50.564;7.272;2023-03-21T06:46:39;12.93;;;7.50;;
830;SDS011;397;50.564;7.272;2023-03-21T06:49:07;10.17;;;6.80;;
830;SDS011;397;50.564;7.272;2023-03-21T06:51:34;10.73;;;7.23;;
830;SDS011;397;50.564;7.272;2023-03-21T06:54:02;10.20;;;6.90;;
830;SDS011;397;50.564;7.272;2023-03-21T06:56:29;8.57;;;6.27;;
830;SDS011;397;50.564;7.272;2023-03-21T06:58:57;14.37;;;7.60;;
830;SDS011;397;50.564;7.272;2023-03-21T07:01:24;8.87;;;7.27;;
830;SDS011;397;50.564;7.272;2023-03-21T07:03:52;13.40;;;7.70;;
830;SDS011;397;50.564;7.272;2023-03-21T07:06:22;8.17;;;7.30;;
830;SDS011;397;50.564;7.272;2023-03-21T07:08:52;9.37;;;7.37;;
830;SDS011;397;50.564;7.272;2023-03-21T07:11:21;13.37;;;8.67;;
830;SDS011;397;50.564;7.272;2023-03-21T07:13:50;14.13;;;7.70;;
830;SDS011;397;50.564;7.272;2023-03-21T07:16:19;10.77;;;7.70;;
830;SDS011;397;50.564;7.272;2023-03-21T07:18:47;11.60;;;8.10;;
830;SDS011;397;50.564;7.272;2023-03-21T07:21:14;11.90;;;8.30;;
830;SDS011;397;50.564;7.272;2023-03-21T07:23:42;10.93;;;7.87;;
830;SDS011;397;50.564;7.272;2023-03-21T07:26:10;12.90;;;7.83;;
830;SDS011;397;50.564;7.272;2023-03-21T07:28:38;14.57;;;8.17;;
830;SDS011;397;50.564;7.272;2023-03-21T07:31:05;16.00;;;8.80;;
830;SDS011;397;50.564;7.272;2023-03-21T07:33:34;10.13;;;8.33;;
830;SDS011;397;50.564;7.272;2023-03-21T07:36:01;10.30;;;8.60;;
830;SDS011;397;50.564;7.272;2023-03-21T07:38:29;12.93;;;9.27;;
830;SDS011;397;50.564;7.272;2023-03-21T07:40:57;13.23;;;8.27;;
830;SDS011;397;50.564;7.272;2023-03-21T07:43:25;12.57;;;8.50;;
830;SDS011;397;50.564;7.272;2023-03-21T07:45:56;9.97;;;8.17;;
830;SDS011;397;50.564;7.272;2023-03-21T07:48:24;14.53;;;8.07;;
830;SDS011;397;50.564;7.272;2023-03-21T07:50:51;12.80;;;8.10;;
830;SDS011;397;50.564;7.272;2023-03-21T07:53:19;12.27;;;8.70;;
830;SDS011;397;50.564;7.272;2023-03-21T07:55:50;10.70;;;7.90;;
830;SDS011;397;50.564;7.272;2023-03-21T07:58:20;14.13;;;9.00;;
830;SDS011;397;50.564;7.272;2023-03-21T08:00:51;13.30;;;8.37;;
830;SDS011;397;50.564;7.272;2023-03-21T08:03:23;9.83;;;7.57;;
830;SDS011;397;50.564;7.272;2023-03-21T08:05:53;20.10;;;7.90;;
830;SDS011;397;50.564;7.272;2023-03-21T08:08:21;14.70;;;9.30;;
830;SDS011;397;50.564;7.272;2023-03-21T08:10:48;15.07;;;9.57;;
830;SDS011;397;50.564;7.272;2023-03-21T08:13:16;14.50;;;7.83;;
830;SDS011;397;50.564;7.272;2023-03-21T08:15:44;14.03;;;9.20;;
830;SDS011;397;50.564;7.272;2023-03-21T08:18:11;12.20;;;9.50;;
830;SDS011;397;50.564;7.272;2023-03-21T08:20:39;12.40;;;8.70;;
830;SDS011;397;50.564;7.272;2023-03-21T08:23:06;10.17;;;9.07;;
830;SDS011;397;50.564;7.272;2023-03-21T08:25:33;13.03;;;10.07;;
830;SDS011;397;50.564;7.272;2023-03-21T08:28:02;13.07;;;9.30;;
830;SDS011;397;50.564;7.272;2023-03-21T08:30:29;11.60;;;8.90;;
830;SDS011;397;50.564;7.272;2023-03-21T08:32:57;12.10;;;8.47;;
830;SDS011;397;50.564;7.272;2023-03-21T08:35:25;13.37;;;9.57;;
830;SDS011;397;50.564;7.272;2023-03-21T08:37:53;14.63;;;8.93;;
830;SDS011;397;50.564;7.272;2023-03-21T08:40:20;11.93;;;8.40;;
830;SDS011;397;50.564;7.272;2023-03-21T08:42:48;13.70;;;8.00;;
830;SDS011;397;50.564;7.272;2023-03-21T08:45:16;14.90;;;9.23;;
830;SDS011;397;50.564;7.272;2023-03-21T08:47:44;12.70;;;8.07;;
830;SDS011;397;50.564;7.272;2023-03-21T08:50:16;14.63;;;7.90;;
830;SDS011;397;50.564;7.272;2023-03-21T08:52:45;10.80;;;8.10;;
830;SDS011;397;50.564;7.272;2023-03-21T08:55:14;17.30;;;9.70;;
830;SDS011;397;50.564;7.272;2023-03-21T08:57:42;11.47;;;9.33;;
830;SDS011;397;50.564;7.272;2023-03-21T09:00:13;17.07;;;9.03;;
830;SDS011;397;50.564;7.272;2023-03-21T09:02:42;9.83;;;7.80;;
830;SDS011;397;50.564;7.272;2023-03-21T09:05:11;14.80;;;8.50;;
830;SDS011;397;50.564;7.272;2023-03-21T09:07:39;15.27;;;8.57;;
830;SDS011;397;50.564;7.272;2023-03-21T09:10:11;13.17;;;8.40;;
830;SDS011;397;50.564;7.272;2023-03-21T09:12:41;17.07;;;9.20;;
830;SDS011;397;50.564;7.272;2023-03-21T09:15:09;20.87;;;8.70;;
830;SDS011;397;50.564;7.272;2023-03-21T09:17:38;11.40;;;8.67;;
830;SDS011;397;50.564;7.272;2023-03-21T09:20:11;12.67;;;8.07;;
830;SDS011;397;50.564;7.272;2023-03-21T09:22:48;9.13;;;7.67;;
830;SDS011;397;50.564;7.272;2023-03-21T09:25:19;11.57;;;7.67;;
830;SDS011;397;50.564;7.272;2023-03-21T09:27:48;11.67;;;8.50;;
830;SDS011;397;50.564;7.272;2023-03-21T09:30:19;12.30;;;7.70;;
830;SDS011;397;50.564;7.272;2023-03-21T09:32:47;13.53;;;7.73;;
830;SDS011;397;50.564;7.272;2023-03-21T09:35:18;15.00;;;7.90;;
830;SDS011;397;50.564;7.272;2023-03-21T09:37:47;10.07;;;6.00;;
830;SDS011;397;50.564;7.272;2023-03-21T09:40:17;8.27;;;6.23;;
830;SDS011;397;50.564;7.272;2023-03-21T09:43:13;13.50;;;7.23;;
830;SDS011;397;50.564;7.272;2023-03-21T09:48:33;10.87;;;6.83;;
830;SDS011;397;50.564;7.272;2023-03-21T09:51:02;7.53;;;6.07;;
830;SDS011;397;50.564;7.272;2023-03-21T09:53:34;8.53;;;6.27;;
830;SDS011;397;50.564;7.272;2023-03-21T09:56:05;10.23;;;5.37;;
830;SDS011;397;50.564;7.272;2023-03-21T09:58:42;10.10;;;6.27;;
830;SDS011;397;50.564;7.272;2023-03-21T10:01:15;8.57;;;5.80;;
830;SDS011;397;50.564;7.272;2023-03-21T10:03:49;8.33;;;5.90;;
830;SDS011;397;50.564;7.272;2023-03-21T10:06:19;10.70;;;6.60;;
830;SDS011;397;50.564;7.272;2023-03-21T10:08:49;12.13;;;5.50;;
830;SDS011;397;50.564;7.272;2023-03-21T10:11:23;10.03;;;6.30;;
830;SDS011;397;50.564;7.272;2023-03-21T10:14:02;7.63;;;5.17;;
830;SDS011;397;50.564;7.272;2023-03-21T10:16:28;7.30;;;4.47;;
830;SDS011;397;50.564;7.272;2023-03-21T10:19:02;8.20;;;5.67;;
830;SDS011;397;50.564;7.272;2023-03-21T10:21:32;8.03;;;6.13;;
830;SDS011;397;50.564;7.272;2023-03-21T10:24:01;8.10;;;4.57;;
830;SDS011;397;50.564;7.272;2023-03-21T10:26:29;7.10;;;5.20;;
830;SDS011;397;50.564;7.272;2023-03-21T10:28:57;8.77;;;5.93;;
830;SDS011;397;50.564;7.272;2023-03-21T10:31:27;10.13;;;8.20;;
830;SDS011;397;50.564;7.272;2023-03-21T10:34:01;8.00;;;6.47;;
830;SDS011;397;50.564;7.272;2023-03-21T10:36:30;7.20;;;5.07;;
830;SDS011;397;50.564;7.272;2023-03-21T10:38:59;7.77;;;5.10;;
830;SDS011;397;50.564;7.272;2023-03-21T10:41:29;9.73;;;4.80;;
830;SDS011;397;50.564;7.272;2023-03-21T10:44:11;8.20;;;5.57;;
830;SDS011;397;50.564;7.272;2023-03-21T10:46:50;8.33;;;6.63;;
830;SDS011;397;50.564;7.272;2023-03-21T10:49:22;10.67;;;5.40;;
830;SDS011;397;50.564;7.272;2023-03-21T10:51:54;13.37;;;7.13;;
830;SDS011;397;50.564;7.272;2023-03-21T10:54:31;11.43;;;6.30;;
830;SDS011;397;50.564;7.272;2023-03-21T10:57:01;8.13;;;5.17;;
830;SDS011;397;50.564;7.272;2023-03-21T10:59:37;9.40;;;6.00;;
830;SDS011;397;50.564;7.272;2023-03-21T11:02:03;9.90;;;5.77;;
830;SDS011;397;50.564;7.272;2023-03-21T11:04:32;9.53;;;5.43;;
830;SDS011;397;50.564;7.272;2023-03-21T11:07:04;7.87;;;5.30;;
830;SDS011;397;50.564;7.272;2023-03-21T11:09:45;9.33;;;5.73;;
830;SDS011;397;50.564;7.272;2023-03-21T11:12:18;9.93;;;6.00;;
830;SDS011;397;50.564;7.272;2023-03-21T11:17:49;6.10;;;5.07;;
830;SDS011;397;50.564;7.272;2023-03-21T11:20:17;10.67;;;4.90;;
830;SDS011;397;50.564;7.272;2023-03-21T11:22:46;5.57;;;4.23;;
830;SDS011;397;50.564;7.272;2023-03-21T11:25:21;7.53;;;4.77;;
830;SDS011;397;50.564;7.272;2023-03-21T11:28:00;7.00;;;5.03;;
830;SDS011;397;50.564;7.272;2023-03-21T11:30:33;8.40;;;5.20;;
830;SDS011;397;50.564;7.272;2023-03-21T11:33:01;12.83;;;5.23;;
830;SDS011;397;50.564;7.272;2023-03-21T11:35:34;7.90;;;6.00;;
830;SDS011;397;50.564;7.272;2023-03-21T11:38:04;8.60;;;5.60;;
830;SDS011;397;50.564;7.272;2023-03-21T11:40:35;8.27;;;5.97;;
830;SDS011;397;50.564;7.272;2023-03-21T11:46:04;11.50;;;6.07;;
830;SDS011;397;50.564;7.272;2023-03-21T11:48:27;8.97;;;5.67;;
830;SDS011;397;50.564;7.272;2023-03-21T11:50:58;11.77;;;6.07;;
830;SDS011;397;50.564;7.272;2023-03-21T11:53:36;8.17;;;5.33;;
830;SDS011;397;50.564;7.272;2023-03-21T12:01:47;10.13;;;6.50;;
830;SDS011;397;50.564;7.272;2023-03-21T12:04:25;8.70;;;6.90;;
830;SDS011;397;50.564;7.272;2023-03-21T12:07:06;9.07;;;6.70;;
830;SDS011;397;50.564;7.272;2023-03-21T12:09:37;12.03;;;6.73;;
830;SDS011;397;50.564;7.272;2023-03-21T12:12:18;10.20;;;7.57;;
830;SDS011;397;50.564;7.272;2023-03-21T12:17:45;11.83;;;7.00;;
830;SDS011;397;50.564;7.272;2023-03-21T12:23:33;10.37;;;6.90;;
830;SDS011;397;50.564;7.272;2023-03-21T12:26:24;10.53;;;6.97;;
830;SDS011;397;50.564;7.272;2023-03-21T12:37:36;10.77;;;7.00;;
830;SDS011;397;50.564;7.272;2023-03-21T12:40:27;9.27;;;6.13;;
830;SDS011;397;50.564;7.272;2023-03-21T12:43:19;8.93;;;5.67;;
830;SDS011;397;50.564;7.272;2023-03-21T12:45:48;8.00;;;6.07;;
830;SDS011;397;50.564;7.272;2023-03-21T12:48:32;8.30;;;7.10;;
830;SDS011;397;50.564;7.272;2023-03-21T12:51:04;9.60;;;5.90;;
830;SDS011;397;50.564;7.272;2023-03-21T12:53:55;6.73;;;5.93;;
830;SDS011;397;50.564;7.272;2023-03-21T12:59:05;8.80;;;6.20;;
830;SDS011;397;50.564;7.272;2023-03-21T13:01:46;11.40;;;6.53;;
830;SDS011;397;50.564;7.272;2023-03-21T13:06:55;9.97;;;5.80;;
830;SDS011;397;50.564;7.272;2023-03-21T13:09:34;6.60;;;5.90;;
830;SDS011;397;50.564;7.272;2023-03-21T13:12:10;10.63;;;6.63;;
830;SDS011;397;50.564;7.272;2023-03-21T13:14:35;8.53;;;5.93;;
830;SDS011;397;50.564;7.272;2023-03-21T13:17:10;8.50;;;5.83;;
830;SDS011;397;50.564;7.272;2023-03-21T13:24:49;7.47;;;6.00;;
830;SDS011;397;50.564;7.272;2023-03-21T13:27:20;6.93;;;6.17;;
830;SDS011;397;50.564;7.272;2023-03-21T13:29:53;7.97;;;6.00;;
830;SDS011;397;50.564;7.272;2023-03-21T13:32:35;11.27;;;6.83;;
830;SDS011;397;50.564;7.272;2023-03-21T13:35:12;7.07;;;6.37;;
830;SDS011;397;50.564;7.272;2023-03-21T13:37:42;13.90;;;6.43;;
830;SDS011;397;50.564;7.272;2023-03-21T13:40:22;7.93;;;5.90;;
830;SDS011;397;50.564;7.272;2023-03-21T13:49:00;11.30;;;5.43;;
830;SDS011;397;50.564;7.272;2023-03-21T13:59:16;10.23;;;6.37;;
830;SDS011;397;50.564;7.272;2023-03-21T14:04:39;8.43;;;6.20;;
830;SDS011;397;50.564;7.272;2023-03-21T14:07:10;11.70;;;5.30;;
830;SDS011;397;50.564;7.272;2023-03-21T14:09:49;9.13;;;6.50;;
830;SDS011;397;50.564;7.272;2023-03-21T14:12:22;7.50;;;5.70;;
830;SDS011;397;50.564;7.272;2023-03-21T14:14:53;7.70;;;5.43;;
830;SDS011;397;50.564;7.272;2023-03-21T14:17:27;6.13;;;5.53;;
830;SDS011;397;50.564;7.272;2023-03-21T14:20:00;9.00;;;5.93;;
830;SDS011;397;50.564;7.272;2023-03-21T14:22:31;8.27;;;6.00;;
830;SDS011;397;50.564;7.272;2023-03-21T14:24:59;10.57;;;5.60;;
830;SDS011;397;50.564;7.272;2023-03-21T14:27:31;9.43;;;5.40;;
830;SDS011;397;50.564;7.272;2023-03-21T14:30:02;8.10;;;5.57;;
830;SDS011;397;50.564;7.272;2023-03-21T14:32:30;8.73;;;5.67;;
830;SDS011;397;50.564;7.272;2023-03-21T14:34:58;7.93;;;5.33;;
830;SDS011;397;50.564;7.272;2023-03-21T14:37:28;8.27;;;5.80;;
830;SDS011;397;50.564;7.272;2023-03-21T14:40:01;6.80;;;5.50;;
830;SDS011;397;50.564;7.272;2023-03-21T14:42:32;11.40;;;5.40;;
830;SDS011;397;50.564;7.272;2023-03-21T14:45:17;6.93;;;5.43;;
830;SDS011;397;50.564;7.272;2023-03-21T14:47:59;12.67;;;6.13;;
830;SDS011;397;50.564;7.272;2023-03-21T14:53:21;10.37;;;6.17;;
830;SDS011;397;50.564;7.272;2023-03-21T14:55:58;7.80;;;5.00;;
830;SDS011;397;50.564;7.272;2023-03-21T14:58:27;9.13;;;5.70;;
830;SDS011;397;50.564;7.272;2023-03-21T15:00:57;9.03;;;6.07;;
830;SDS011;397;50.564;7.272;2023-03-21T15:03:29;10.77;;;5.93;;
830;SDS011;397;50.564;7.272;2023-03-21T15:05:58;7.43;;;5.47;;
830;SDS011;397;50.564;7.272;2023-03-21T15:08:27;6.33;;;5.00;;
830;SDS011;397;50.564;7.272;2023-03-21T15:10:57;8.90;;;4.57;;
830;SDS011;397;50.564;7.272;2023-03-21T15:13:27;8.60;;;6.10;;
830;SDS011;397;50.564;7.272;2023-03-21T15:16:03;9.70;;;5.07;;
830;SDS011;397;50.564;7.272;2023-03-21T15:18:32;7.37;;;5.83;;
830;SDS011;397;50.564;7.272;2023-03-21T15:21:02;9.00;;;5.73;;
830;SDS011;397;50.564;7.272;2023-03-21T15:23:34;9.87;;;5.70;;
830;SDS011;397;50.564;7.272;2023-03-21T15:26:13;7.60;;;5.00;;
830;SDS011;397;50.564;7.272;2023-03-21T15:28:44;6.33;;;5.10;;
830;SDS011;397;50.564;7.272;2023-03-21T15:31:21;5.40;;;4.80;;
830;SDS011;397;50.564;7.272;2023-03-21T15:33:52;7.13;;;4.83;;
830;SDS011;397;50.564;7.272;2023-03-21T15:36:25;8.30;;;5.23;;
830;SDS011;397;50.564;7.272;2023-03-21T15:41:38;7.60;;;5.90;;
830;SDS011;397;50.564;7.272;2023-03-21T15:46:42;6.10;;;5.00;;
830;SDS011;397;50.564;7.272;2023-03-21T15:51:48;10.87;;;5.17;;
830;SDS011;397;50.564;7.272;2023-03-21T15:54:25;8.60;;;4.70;;
830;SDS011;397;50.564;7.272;2023-03-21T15:57:03;7.00;;;4.80;;
830;SDS011;397;50.564;7.272;2023-03-21T15:59:35;8.10;;;5.83;;
830;SDS011;397;50.564;7.272;2023-03-21T16:02:10;7.60;;;5.03;;
830;SDS011;397;50.564;7.272;2023-03-21T16:04:57;8.93;;;5.53;;
830;SDS011;397;50.564;7.272;2023-03-21T16:07:31;7.07;;;4.63;;
830;SDS011;397;50.564;7.272;2023-03-21T16:10:01;7.20;;;4.70;;
830;SDS011;397;50.564;7.272;2023-03-21T16:12:29;6.20;;;4.50;;
830;SDS011;397;50.564;7.272;2023-03-21T16:14:58;5.33;;;4.30;;
830;SDS011;397;50.564;7.272;2023-03-21T16:17:29;6.53;;;4.70;;
830;SDS011;397;50.564;7.272;2023-03-21T16:20:01;7.33;;;4.60;;
830;SDS011;397;50.564;7.272;2023-03-21T16:22:31;6.50;;;5.40;;
830;SDS011;397;50.564;7.272;2023-03-21T16:25:00;5.50;;;4.23;;
830;SDS011;397;50.564;7.272;2023-03-21T16:27:27;7.83;;;5.60;;
830;SDS011;397;50.564;7.272;2023-03-21T16:29:55;8.30;;;5.13;;
830;SDS011;397;50.564;7.272;2023-03-21T16:32:22;7.13;;;5.30;;
830;SDS011;397;50.564;7.272;2023-03-21T16:34:50;7.20;;;4.70;;
830;SDS011;397;50.564;7.272;2023-03-21T16:40:15;8.70;;;6.07;;
830;SDS011;397;50.564;7.272;2023-03-21T16:42:41;14.10;;;7.37;;
830;SDS011;397;50.564;7.272;2023-03-21T16:45:09;10.20;;;7.07;;
830;SDS011;397;50.564;7.272;2023-03-21T16:47:37;11.43;;;7.70;;
830;SDS011;397;50.564;7.272;2023-03-21T16:50:50;13.07;;;7.10;;
830;SDS011;397;50.564;7.272;2023-03-21T16:52:41;7.53;;;6.57;;
830;SDS011;397;50.564;7.272;2023-03-21T16:55:08;15.57;;;10.30;;
830;SDS011;397;50.564;7.272;2023-03-21T16:57:36;8.27;;;6.60;;
830;SDS011;397;50.564;7.272;2023-03-21T17:00:04;9.30;;;7.33;;
830;SDS011;397;50.564;7.272;2023-03-21T17:02:34;9.43;;;7.40;;
830;SDS011;397;50.564;7.272;2023-03-21T17:05:02;9.97;;;6.90;;
830;SDS011;397;50.564;7.272;2023-03-21T17:07:31;8.10;;;7.30;;
830;SDS011;397;50.564;7.272;2023-03-21T17:09:59;8.30;;;7.10;;
830;SDS011;397;50.564;7.272;2023-03-21T17:12:26;7.00;;;4.93;;
830;SDS011;397;50.564;7.272;2023-03-21T17:14:54;6.03;;;5.43;;
830;SDS011;397;50.564;7.272;2023-03-21T17:17:21;9.30;;;5.10;;
830;SDS011;397;50.564;7.272;2023-03-21T17:19:49;6.67;;;5.97;;
830;SDS011;397;50.564;7.272;2023-03-21T17:22:16;6.53;;;5.43;;
830;SDS011;397;50.564;7.272;2023-03-21T17:24:44;6.23;;;5.20;;
830;SDS011;397;50.564;7.272;2023-03-21T17:27:12;8.60;;;6.03;;
830;SDS011;397;50.564;7.272;2023-03-21T17:29:42;7.00;;;5.00;;
830;SDS011;397;50.564;7.272;2023-03-21T17:32:09;14.87;;;5.60;;
830;SDS011;397;50.564;7.272;2023-03-21T17:34:37;6.23;;;4.93;;
830;SDS011;397;50.564;7.272;2023-03-21T17:37:04;6.50;;;5.80;;